Time;durP1;ratioP1;P1;durP2;ratioP2;P2;SDS_P1;SDS_P2;PMS_P1;PMS_P2;Temp;Humidity;BMP_temperature;BMP_pressure;BME280_temperature;BME280_humidity;BME280_pressure;Samples;Min_cycle;Max_cycle;Signal;HPM_P1;HPM_P2
2023/02/19 00:00:13;;;;;;;3.65;1.65;;;;;;;8.91;69.12;96576.88;2107447;28;20051;-75
2023/02/19 00:01:16;;;;;;;2.25;1.38;;;;;;;9.02;68.66;96586.00;2107496;28;20044;-75
2023/02/19 00:02:17;;;;;;;1.73;1.20;;;;;;;9.01;68.75;96589.50;2107427;28;20050;-75
2023/02/19 00:03:18;;;;;;;3.25;1.58;;;;;;;9.03;69.22;96587.72;2107546;28;20035;-75
2023/02/19 00:04:20;;;;;;;2.97;1.52;;;;;;;9.02;69.26;96591.19;2107526;28;20044;-75
2023/02/19 00:05:21;;;;;;;2.80;1.70;;;;;;;9.00;69.19;96592.97;2107434;28;20040;-75
2023/02/19 00:06:23;;;;;;;2.30;1.40;;;;;;;9.01;69.51;96588.66;2107601;28;20043;-75
2023/02/19 00:07:24;;;;;;;3.50;1.40;;;;;;;8.99;69.70;96585.25;2107446;28;20040;-75
2023/02/19 00:08:26;;;;;;;1.77;1.20;;;;;;;8.96;69.77;96581.03;2098451;28;20445;-75
2023/02/19 00:09:27;;;;;;;3.22;1.50;;;;;;;8.94;69.67;96585.41;2098639;28;20024;-76
2023/02/19 00:10:28;;;;;;;2.97;1.75;;;;;;;8.87;69.64;96572.69;2098568;28;20096;-75
2023/02/19 00:11:30;;;;;;;2.10;1.45;;;;;;;8.92;69.80;96579.41;2098475;28;20059;-75
2023/02/19 00:12:31;;;;;;;2.55;1.45;;;;;;;8.91;69.82;96574.28;2107442;28;20035;-75
2023/02/19 00:13:36;;;;;;;2.83;1.40;;;;;;;8.90;69.66;96570.88;2107342;28;20040;-75
2023/02/19 00:14:37;;;;;;;2.80;1.48;;;;;;;8.90;69.46;96573.47;2107350;28;20036;-75
2023/02/19 00:15:38;;;;;;;2.45;1.30;;;;;;;8.91;70.21;96574.28;2098661;28;20508;-76
2023/02/19 00:16:39;;;;;;;1.52;1.10;;;;;;;8.91;69.90;96576.88;2098307;28;20036;-75
2023/02/19 00:17:40;;;;;;;1.60;1.10;;;;;;;8.91;70.21;96574.28;2107336;28;20055;-75
2023/02/19 00:18:41;;;;;;;1.98;1.27;;;;;;;8.90;70.03;96570.88;2107735;28;20035;-76
2023/02/19 00:19:42;;;;;;;2.70;1.70;;;;;;;8.88;70.22;96564.88;2107373;28;20044;-75
2023/02/19 00:20:43;;;;;;;3.45;1.40;;;;;;;8.85;70.08;96567.56;2107558;28;20036;-76
2023/02/19 00:21:45;;;;;;;2.63;1.60;;;;;;;8.85;70.24;96559.78;2107444;28;20482;-75
2023/02/19 00:22:46;;;;;;;2.08;1.38;;;;;;;8.83;70.98;96564.16;2107560;28;20039;-76
2023/02/19 00:23:57;;;;;;;5.70;1.60;;;;;;;8.83;70.43;96572.78;2107317;28;20043;-77
2023/02/19 00:24:58;;;;;;;2.20;1.30;;;;;;;8.80;70.79;96557.34;2107365;28;20044;-76
2023/02/19 00:26:06;;;;;;;2.40;1.50;;;;;;;8.79;70.96;96552.19;2107254;28;20143;-76
2023/02/19 00:27:07;;;;;;;2.78;1.60;;;;;;;8.81;71.41;96560.78;2098322;28;20499;-76
2023/02/19 00:28:09;;;;;;;2.28;1.35;;;;;;;8.80;70.88;96549.56;2098266;28;20036;-76
2023/02/19 00:29:14;;;;;;;3.70;1.42;;;;;;;8.80;70.68;96554.75;2107159;28;20048;-76
2023/02/19 00:30:16;;;;;;;2.45;1.48;;;;;;;8.82;70.92;96554.69;2107320;28;20491;-77
2023/02/19 00:31:19;;;;;;;2.45;1.40;;;;;;;8.82;70.76;96557.28;2098263;28;20035;-77
2023/02/19 00:32:20;;;;;;;3.45;1.60;;;;;;;8.76;71.11;96558.31;2090222;28;20543;-76
2023/02/19 00:33:21;;;;;;;2.25;1.58;;;;;;;8.75;71.02;96546.28;2098429;28;20029;-77
2023/02/19 00:34:22;;;;;;;2.88;1.48;;;;;;;8.81;70.78;96550.41;2098235;28;20496;-77
2023/02/19 00:35:23;;;;;;;3.03;1.50;;;;;;;8.84;70.29;96556.34;2082002;28;20045;-76
2023/02/19 00:36:25;;;;;;;2.70;1.48;;;;;;;8.83;70.49;96539.13;2089936;28;20059;-77
2023/02/19 00:37:26;;;;;;;3.75;1.73;;;;;;;8.83;70.50;96540.88;2098218;28;20388;-78
2023/02/19 00:38:27;;;;;;;2.92;1.83;;;;;;;8.89;70.42;96547.59;2098242;28;20035;-77
2023/02/19 00:39:28;;;;;;;3.20;1.70;;;;;;;8.87;70.21;96550.22;2098129;28;20066;-77
2023/02/19 00:40:29;;;;;;;2.90;1.45;;;;;;;8.86;70.81;96548.53;2090033;28;20481;-76
2023/02/19 00:41:31;;;;;;;2.78;1.38;;;;;;;8.86;70.56;96550.28;2098154;28;20036;-76
2023/02/19 00:42:32;;;;;;;3.63;1.40;;;;;;;8.84;70.80;96545.97;2107171;28;20043;-76
2023/02/19 00:43:33;;;;;;;2.65;1.50;;;;;;;8.84;70.94;96550.31;2107120;28;20032;-76
2023/02/19 00:44:34;;;;;;;4.82;1.80;;;;;;;8.86;70.38;96553.72;2107118;28;20447;-76
2023/02/19 00:45:35;;;;;;;3.53;1.65;;;;;;;8.84;70.52;96545.13;2107144;28;20036;-76
2023/02/19 00:46:38;;;;;;;3.28;1.92;;;;;;;8.79;71.11;96547.03;2098132;28;20033;-76
2023/02/19 00:47:39;;;;;;;2.63;1.58;;;;;;;8.78;71.07;96553.94;2098414;28;20055;-76
2023/02/19 00:48:41;;;;;;;3.72;1.20;;;;;;;8.81;71.23;96550.41;2106943;28;20475;-76
2023/02/19 00:49:42;;;;;;;2.55;1.35;;;;;;;8.81;71.02;96551.25;2107212;28;20044;-76
2023/02/19 00:50:43;;;;;;;2.22;1.40;;;;;;;8.82;70.48;96550.38;2107069;28;20032;-76
2023/02/19 00:51:45;;;;;;;2.13;1.30;;;;;;;8.84;71.03;96556.34;2107057;28;20028;-77
2023/02/19 00:52:46;;;;;;;2.72;1.73;;;;;;;8.79;70.82;96549.59;2098209;28;20032;-77
2023/02/19 00:53:47;;;;;;;2.47;1.50;;;;;;;8.76;70.91;96547.97;2098212;28;20495;-77
2023/02/19 00:54:48;;;;;;;2.40;1.60;;;;;;;8.81;71.10;96550.41;2098051;28;20044;-77
2023/02/19 00:55:49;;;;;;;3.65;1.40;;;;;;;8.87;70.49;96550.22;2098062;28;20044;-75
2023/02/19 00:56:50;;;;;;;3.08;1.38;;;;;;;8.87;70.75;96546.78;2107156;28;20043;-77
2023/02/19 00:57:52;;;;;;;2.55;1.08;;;;;;;8.89;69.96;96545.00;2098257;28;20427;-77
2023/02/19 00:58:53;;;;;;;3.00;1.42;;;;;;;8.88;70.21;96536.38;2092483;28;20040;-77
2023/02/19 00:59:54;;;;;;;2.15;1.48;;;;;;;8.93;70.44;96550.03;2098828;28;20041;-76
2023/02/19 01:00:55;;;;;;;3.33;1.40;;;;;;;8.91;70.59;96541.47;2099053;28;20078;-76
2023/02/19 01:01:56;;;;;;;2.35;1.45;;;;;;;8.95;70.53;96539.59;2090201;28;20048;-76
2023/02/19 01:02:57;;;;;;;1.70;1.17;;;;;;;8.95;69.81;96543.03;2090041;28;20468;-76
2023/02/19 01:04:00;;;;;;;2.08;1.25;;;;;;;8.88;70.86;96538.97;2098119;28;20047;-75
2023/02/19 01:05:01;;;;;;;2.10;1.30;;;;;;;8.89;70.52;96553.59;2097913;28;20044;-78
2023/02/19 01:06:03;;;;;;;2.28;1.40;;;;;;;8.93;70.66;96533.66;2098055;28;20032;-76
2023/02/19 01:07:04;;;;;;;2.30;1.45;;;;;;;8.96;69.87;96541.31;2097935;28;20063;-77
2023/02/19 01:08:05;;;;;;;2.30;1.60;;;;;;;8.94;70.69;96541.34;2097949;28;20049;-76
2023/02/19 01:09:06;;;;;;;1.60;1.20;;;;;;;8.82;70.68;96537.44;2097929;28;20092;-76
2023/02/19 01:10:07;;;;;;;2.17;1.38;;;;;;;8.87;70.85;96539.84;2089588;28;20044;-76
2023/02/19 01:11:08;;;;;;;2.70;1.42;;;;;;;8.92;70.95;96535.38;2097889;28;20514;-76
2023/02/19 01:12:09;;;;;;;1.90;1.33;;;;;;;8.91;70.51;96533.69;2097935;28;20047;-76
2023/02/19 01:13:11;;;;;;;2.70;1.80;;;;;;;8.87;70.32;96526.06;2089650;28;20041;-76
2023/02/19 01:14:12;;;;;;;2.30;1.40;;;;;;;8.89;70.32;96522.53;2089670;28;20035;-76
2023/02/19 01:15:13;;;;;;;2.72;1.70;;;;;;;8.93;70.46;96534.50;2098125;28;20149;-77
2023/02/19 01:16:15;;;;;;;2.63;1.30;;;;;;;8.92;70.20;96535.38;2097841;28;20051;-77
2023/02/19 01:17:16;;;;;;;2.67;1.60;;;;;;;8.87;71.06;96529.50;2098256;28;20388;-77
2023/02/19 01:18:17;;;;;;;3.72;1.60;;;;;;;8.88;70.44;96525.19;2097940;28;20036;-77
2023/02/19 01:19:18;;;;;;;2.72;1.30;;;;;;;8.89;70.44;96538.06;2106790;28;20047;-77
2023/02/19 01:20:19;;;;;;;2.50;1.38;;;;;;;8.93;70.44;96524.13;2106954;28;20460;-77
2023/02/19 01:21:24;;;;;;;2.38;1.70;;;;;;;8.91;70.17;96530.25;2097847;28;20040;-77
2023/02/19 01:22:26;;;;;;;2.90;1.67;;;;;;;8.88;70.72;96526.03;2090278;28;20048;-77
2023/02/19 01:23:27;;;;;;;2.05;1.27;;;;;;;8.89;70.95;96522.53;2097869;28;20490;-77
2023/02/19 01:24:28;;;;;;;2.00;1.30;;;;;;;8.87;70.53;96518.28;2107115;28;20031;-78
2023/02/19 01:25:29;;;;;;;1.85;1.30;;;;;;;8.92;70.92;96524.16;2106774;28;20039;-77
2023/02/19 01:26:30;;;;;;;2.05;1.27;;;;;;;8.92;70.78;96525.00;2106800;28;20487;-77
2023/02/19 01:27:31;;;;;;;2.80;1.15;;;;;;;8.91;70.66;96533.69;2107147;28;20032;-77
2023/02/19 01:28:33;;;;;;;2.60;1.48;;;;;;;8.93;70.15;96523.28;2106693;28;20039;-77
2023/02/19 01:29:34;;;;;;;2.58;1.40;;;;;;;8.78;70.45;96493.53;2106824;28;20088;-77
2023/02/19 01:30:36;;;;;;;3.50;1.63;;;;;;;8.92;70.69;96521.59;2106986;28;20043;-77
2023/02/19 01:31:38;;;;;;;1.98;1.30;;;;;;;8.88;70.51;96520.84;2097289;28;20108;-77
2023/02/19 01:32:39;;;;;;;1.92;1.30;;;;;;;8.99;69.83;96517.91;2089582;28;20416;-77
2023/02/19 01:33:44;;;;;;;2.47;1.30;;;;;;;8.99;70.53;96507.53;2089780;28;20052;-76
2023/02/19 01:34:45;;;;;;;2.40;1.33;;;;;;;8.96;70.36;96516.25;2090049;28;20515;-77
2023/02/19 01:35:46;;;;;;;4.65;1.67;;;;;;;8.92;70.30;96506.88;2097791;28;20035;-76
2023/02/19 01:36:47;;;;;;;2.33;1.40;;;;;;;8.94;70.29;96515.47;2106976;28;20040;-76
2023/02/19 01:37:49;;;;;;;2.40;1.70;;;;;;;8.92;70.46;96516.41;2106726;28;20035;-76
2023/02/19 01:38:50;;;;;;;2.90;1.38;;;;;;;8.92;70.55;96519.00;2097906;28;20041;-77
2023/02/19 01:39:51;;;;;;;2.45;1.55;;;;;;;8.94;70.10;96514.63;2089480;28;20437;-77
2023/02/19 01:40:56;;;;;;;3.30;1.80;;;;;;;8.90;70.11;96511.28;2097742;28;20048;-76
2023/02/19 01:41:57;;;;;;;1.83;1.30;;;;;;;8.94;70.62;96517.22;2097670;28;20063;-76
2023/02/19 01:42:58;;;;;;;5.75;1.70;;;;;;;8.97;70.17;96514.50;2098014;28;20465;-77
2023/02/19 01:44:03;;;;;;;2.75;1.60;;;;;;;9.01;70.36;96516.13;2106649;28;20047;-77
2023/02/19 01:45:34;;;;;;;2.05;1.42;;;;;;;8.99;70.14;96516.16;2097572;28;20484;-77
2023/02/19 01:46:38;;;;;;;2.78;1.27;;;;;;;8.99;69.84;96500.63;2080752;28;20045;-79
2023/02/19 01:47:39;;;;;;;2.60;1.70;;;;;;;9.05;69.75;96512.50;2081694;28;20049;-74
2023/02/19 01:48:40;;;;;;;3.28;1.73;;;;;;;9.02;70.17;96510.03;2081075;28;20397;-74
2023/02/19 01:49:47;;;;;;;2.38;1.35;;;;;;;9.01;70.17;96504.00;2089749;28;20041;-74
2023/02/19 01:50:58;;;;;;;2.35;1.30;;;;;;;9.02;69.83;96499.66;2090140;28;20052;-74
2023/02/19 01:52:01;;;;;;;2.58;1.55;;;;;;;8.97;69.86;96489.44;2099370;28;20464;-74
2023/02/19 01:53:04;;;;;;;3.42;1.85;;;;;;;9.07;69.73;96500.38;2089428;28;20501;-75
2023/02/19 01:54:06;;;;;;;2.20;1.25;;;;;;;9.02;69.85;96499.66;2065436;28;20050;-75
2023/02/19 01:55:07;;;;;;;2.63;1.45;;;;;;;9.01;69.64;96506.59;2073668;28;20053;-73
2023/02/19 01:56:08;;;;;;;2.80;1.70;;;;;;;9.02;69.77;96510.03;2072914;28;20057;-74
2023/02/19 01:57:14;;;;;;;3.13;1.52;;;;;;;8.94;70.36;96507.69;2064898;28;20050;-74
2023/02/19 01:58:16;;;;;;;5.40;1.60;;;;;;;9.02;69.54;96510.03;2075161;28;20048;-75
2023/02/19 01:59:17;;;;;;;2.50;1.30;;;;;;;9.00;69.65;96491.09;2097892;28;20044;-74
2023/02/19 02:00:18;;;;;;;2.72;1.40;;;;;;;9.02;69.69;96500.50;2089335;28;20052;-75
2023/02/19 02:01:19;;;;;;;2.20;1.40;;;;;;;9.03;69.71;96498.75;2081034;28;20048;-75
2023/02/19 02:02:21;;;;;;;2.80;1.25;;;;;;;9.02;69.42;96497.06;2089371;28;20456;-75
2023/02/19 02:03:22;;;;;;;3.28;1.60;;;;;;;9.00;69.75;96502.28;2089473;28;20491;-75
2023/02/19 02:04:23;;;;;;;2.10;1.30;;;;;;;8.98;70.40;96498.94;2072838;28;20056;-74
2023/02/19 02:05:40;;;;;;;4.60;1.55;;;;;;;8.98;69.87;96496.34;2089172;28;20044;-75
2023/02/19 02:06:51;;;;;;;2.58;1.38;;;;;;;8.97;70.31;96498.97;2081233;28;20057;-75
2023/02/19 02:10:31;;;;;;;2.38;1.48;;;;;;;8.93;69.87;96474.91;2066839;28;20049;-75
2023/02/19 02:11:32;;;;;;;3.08;1.75;;;;;;;8.88;70.03;96482.00;2077906;28;20517;-74
2023/02/19 02:12:33;;;;;;;2.45;1.70;;;;;;;8.95;69.89;96491.25;2081088;28;20097;-75
2023/02/19 02:13:34;;;;;;;3.00;1.70;;;;;;;8.90;69.66;96477.63;2089214;28;20033;-74
2023/02/19 02:14:36;;;;;;;3.30;1.65;;;;;;;8.97;69.83;96486.03;2089264;28;20497;-75
2023/02/19 02:15:59;;;;;;;3.10;1.40;;;;;;;8.87;69.97;96464.75;2089425;28;20543;-75
2023/02/19 02:17:07;;;;;;;4.43;1.70;;;;;;;8.90;70.25;96469.84;2081102;28;20056;-75
2023/02/19 02:18:16;;;;;;;2.13;1.30;;;;;;;8.97;70.36;96471.31;2084424;28;20048;-76
2023/02/19 02:19:36;;;;;;;3.40;1.55;;;;;;;8.94;70.01;96463.66;2090169;28;20296;-76
2023/02/19 02:21:16;;;;;;;2.90;1.65;;;;;;;8.92;70.48;96470.63;2090940;28;20045;-74
2023/02/19 02:22:23;;;;;;;3.30;1.70;;;;;;;8.92;70.08;96472.38;2093877;28;20044;-76
2023/02/19 02:23:51;;;;;;;4.00;1.50;;;;;;;8.84;70.56;96473.47;2089979;28;20512;-76
2023/02/19 02:25:10;;;;;;;2.95;1.45;;;;;;;8.84;71.04;96459.66;2092990;28;20033;-76
2023/02/19 02:26:24;;;;;;;3.10;1.95;;;;;;;8.78;70.68;96454.69;2083456;28;20386;-76
2023/02/19 02:27:30;;;;;;;3.33;1.40;;;;;;;8.76;70.98;96462.50;2084336;28;20477;-76
2023/02/19 02:28:52;;;;;;;2.25;1.63;;;;;;;8.73;71.31;96459.19;2089121;28;20469;-76
2023/02/19 02:30:11;;;;;;;2.05;1.40;;;;;;;8.74;70.86;96460.84;2087167;28;20052;-76
2023/02/19 02:31:13;;;;;;;3.20;1.73;;;;;;;8.72;71.16;96468.69;2094491;28;20369;-77
2023/02/19 02:32:16;;;;;;;2.72;1.40;;;;;;;8.61;71.21;96450.91;2080942;28;20048;-76
2023/02/19 02:33:23;;;;;;;3.75;1.60;;;;;;;8.71;71.53;96443.69;2081319;28;20076;-76
2023/02/19 02:34:40;;;;;;;3.72;1.95;;;;;;;8.66;71.99;96453.38;2090337;28;20068;-76
2023/02/19 02:35:46;;;;;;;3.83;1.70;;;;;;;8.59;72.56;96452.69;2089417;28;20049;-76
2023/02/19 02:36:49;;;;;;;2.63;1.48;;;;;;;8.56;72.81;96437.28;2066943;28;20049;-76
2023/02/19 02:37:50;;;;;;;3.65;2.03;;;;;;;8.49;74.40;96450.47;2057878;28;20502;-76
2023/02/19 02:38:53;;;;;;;4.03;1.92;;;;;;;8.42;74.44;96452.41;2073036;28;20041;-77
2023/02/19 02:39:55;;;;;;;3.65;1.88;;;;;;;8.31;75.21;96449.25;2089626;28;20044;-77
2023/02/19 02:40:57;;;;;;;3.28;1.77;;;;;;;8.31;75.06;96449.25;2089098;28;20045;-76
2023/02/19 02:43:26;;;;;;;3.05;1.70;;;;;;;8.15;76.12;96443.69;2092763;28;20036;-76
2023/02/19 02:44:34;;;;;;;3.80;1.80;;;;;;;8.25;75.74;96446.84;2090898;28;20041;-77
2023/02/19 02:45:36;;;;;;;4.22;2.00;;;;;;;8.21;76.06;96453.88;2091624;28;20041;-77
2023/02/19 02:46:43;;;;;;;3.88;1.80;;;;;;;8.26;75.13;96439.06;2083421;28;20499;-76
2023/02/19 02:47:49;;;;;;;3.13;2.03;;;;;;;8.21;76.02;96442.69;2075253;28;20037;-76
2023/02/19 02:48:57;;;;;;;2.13;1.63;;;;;;;8.16;76.29;96446.25;2083911;28;20049;-75
2023/02/19 02:50:04;;;;;;;3.05;1.60;;;;;;;8.10;76.03;96443.84;2083615;28;20048;-76
2023/02/19 02:51:22;;;;;;;4.00;1.92;;;;;;;8.22;75.45;96434.88;2084483;28;20052;-77
2023/02/19 02:55:42;;;;;;;2.35;1.40;;;;;;;8.05;76.87;96440.56;2086146;28;20048;-73
2023/02/19 02:56:44;;;;;;;3.80;1.70;;;;;;;8.07;77.35;96450.84;2066318;28;20517;-75
2023/02/19 02:57:46;;;;;;;3.13;1.63;;;;;;;8.07;77.14;96432.75;2066371;28;20525;-74
2023/02/19 02:58:47;;;;;;;3.35;1.60;;;;;;;8.06;77.72;96434.47;2082579;28;20481;-74
2023/02/19 02:59:49;;;;;;;3.58;1.88;;;;;;;8.00;78.35;96428.66;2082544;28;20033;-73
2023/02/19 03:02:17;;;;;;;3.53;2.03;;;;;;;7.86;79.16;96413.56;2072736;28;20049;-75
2023/02/19 03:03:20;;;;;;;3.08;1.90;;;;;;;7.66;80.65;96402.06;2064472;28;20042;-75
2023/02/19 03:06:18;;;;;;;3.10;2.03;;;;;;;7.65;81.74;96428.81;2097719;28;20036;-78
2023/02/19 03:07:19;;;;;;;5.22;2.88;;;;;;;7.57;81.99;96425.59;2082571;28;20531;-77
2023/02/19 03:08:27;;;;;;;3.97;2.00;;;;;;;7.53;82.63;96431.72;2090814;28;20032;-77
2023/02/19 03:09:39;;;;;;;2.75;1.88;;;;;;;7.54;82.46;96433.44;2083161;28;20413;-78
2023/02/19 03:10:53;;;;;;;3.55;1.67;;;;;;;7.46;83.35;96428.47;2076042;28;20045;-79
2023/02/19 03:19:20;;;;;;;4.03;1.90;;;;;;;7.19;85.69;96427.50;2087400;28;20045;-74
2023/02/19 03:20:24;;;;;;;3.72;2.20;;;;;;;7.17;86.39;96429.28;2077003;28;20049;-74
2023/02/19 03:21:26;;;;;;;4.10;2.40;;;;;;;7.13;86.80;96427.66;2063797;28;20048;-75
2023/02/19 03:22:30;;;;;;;3.08;1.95;;;;;;;7.13;86.51;96430.22;2074446;28;20501;-75
2023/02/19 03:26:38;;;;;;;5.25;2.63;;;;;;;7.14;86.69;96421.63;2088130;28;20044;-74
2023/02/19 03:27:40;;;;;;;3.13;1.95;;;;;;;7.14;86.47;96428.53;2074078;28;20098;-74
2023/02/19 03:30:04;;;;;;;5.18;2.22;;;;;;;7.07;87.15;96409.75;2070885;28;20042;-74
2023/02/19 03:31:05;;;;;;;4.40;2.35;;;;;;;7.07;87.42;96423.50;2074341;28;20058;-74
2023/02/19 03:32:12;;;;;;;4.40;2.53;;;;;;;7.05;87.46;96419.25;2074431;28;20053;-74
2023/02/19 03:33:16;;;;;;;4.32;2.25;;;;;;;7.08;87.34;96419.19;2091246;28;20428;-74
2023/02/19 03:34:21;;;;;;;3.80;2.25;;;;;;;7.00;87.22;96409.06;2082142;28;20049;-74
2023/02/19 03:35:25;;;;;;;3.35;2.30;;;;;;;6.96;87.78;96419.53;2075739;28;20045;-74
2023/02/19 03:36:32;;;;;;;4.47;2.35;;;;;;;7.04;87.35;96415.00;2075009;28;20045;-75
2023/02/19 03:37:59;;;;;;;3.53;2.10;;;;;;;7.01;87.19;96409.91;2083853;28;20033;-75
2023/02/19 03:39:10;;;;;;;3.30;2.20;;;;;;;6.98;87.41;96404.84;2053336;28;20055;-75
2023/02/19 03:40:12;;;;;;;3.70;2.10;;;;;;;6.97;87.36;96416.88;2075345;28;20433;-74
2023/02/19 03:41:30;;;;;;;3.15;2.00;;;;;;;6.95;87.94;96423.84;2074634;28;20156;-74
2023/02/19 03:42:41;;;;;;;3.38;2.25;;;;;;;6.89;88.11;96423.13;2094954;28;20404;-74
2023/02/19 03:43:45;;;;;;;3.58;2.30;;;;;;;6.92;87.87;96410.97;2082023;28;20417;-75
2023/02/19 03:45:23;;;;;;;3.13;2.10;;;;;;;6.97;87.48;96411.72;2067513;28;20626;-75
2023/02/19 03:46:47;;;;;;;2.83;1.92;;;;;;;7.00;86.37;96406.50;2084106;28;20041;-75
2023/02/19 03:48:17;;;;;;;3.55;2.58;;;;;;;7.06;86.99;96420.97;2074247;28;20049;-75
2023/02/19 03:49:34;;;;;;;4.30;2.08;;;;;;;7.06;86.94;96418.41;2085156;28;20484;-75
2023/02/19 03:50:48;;;;;;;4.82;2.75;;;;;;;6.97;87.28;96403.13;2092573;28;20037;-74
2023/02/19 03:52:22;;;;;;;3.35;2.00;;;;;;;6.97;87.21;96406.53;2075782;28;20060;-75
2023/02/19 03:53:29;;;;;;;3.92;2.17;;;;;;;6.95;87.58;96405.75;2071497;28;20037;-74
2023/02/19 03:54:37;;;;;;;3.67;2.40;;;;;;;7.01;86.82;96403.00;2068541;28;20038;-75
2023/02/19 03:56:10;;;;;;;4.30;2.63;;;;;;;6.88;87.22;96400.81;2068669;28;20046;-75
2023/02/19 03:57:22;;;;;;;3.45;1.92;;;;;;;6.85;87.34;96404.31;2086473;28;20052;-75
2023/02/19 03:58:27;;;;;;;3.80;2.28;;;;;;;6.90;87.89;96412.78;2069890;28;20045;-75
2023/02/19 03:59:52;;;;;;;3.20;2.13;;;;;;;6.93;87.31;96409.28;2067024;28;20034;-76
2023/02/19 04:01:20;;;;;;;4.40;2.38;;;;;;;6.76;87.59;96395.06;2088353;28;20060;-75
2023/02/19 04:02:33;;;;;;;4.53;2.42;;;;;;;6.84;87.56;96398.31;2080059;28;20044;-75
2023/02/19 04:03:47;;;;;;;4.15;2.55;;;;;;;6.87;87.54;96404.25;2080378;28;20045;-75
2023/02/19 04:04:53;;;;;;;2.55;1.88;;;;;;;6.87;87.71;96404.25;2083563;28;20045;-75
2023/02/19 04:05:58;;;;;;;3.92;2.25;;;;;;;6.83;87.49;96396.59;2082980;28;20045;-74
2023/02/19 04:06:59;;;;;;;5.32;2.58;;;;;;;6.67;87.81;96378.97;2073574;28;20526;-74
2023/02/19 04:08:16;;;;;;;3.33;2.28;;;;;;;6.72;88.28;96400.34;2067828;28;20429;-75
2023/02/19 04:09:23;;;;;;;3.80;2.30;;;;;;;6.75;88.42;96403.69;2078583;28;20041;-74
2023/02/19 04:10:31;;;;;;;4.32;2.58;;;;;;;6.78;87.19;96406.19;2075985;28;20061;-75
2023/02/19 04:11:33;;;;;;;3.45;2.40;;;;;;;6.73;87.13;96413.19;2074812;28;20038;-75
2023/02/19 04:12:39;;;;;;;4.07;2.30;;;;;;;6.82;86.87;96402.66;2075040;28;20049;-75
2023/02/19 04:13:45;;;;;;;4.15;2.80;;;;;;;6.75;87.12;96402.84;2082717;28;20528;-76
2023/02/19 04:14:58;;;;;;;4.03;2.25;;;;;;;6.66;87.81;96403.09;2083601;28;20056;-75
2023/02/19 04:16:02;;;;;;;3.45;2.05;;;;;;;6.64;87.04;96395.38;2084217;28;20447;-75
2023/02/19 04:17:07;;;;;;;4.78;2.30;;;;;;;6.68;87.54;96416.78;2082365;28;20329;-74
2023/02/19 04:18:12;;;;;;;3.70;2.83;;;;;;;6.64;87.76;96408.28;2082779;28;20531;-75
2023/02/19 04:19:15;;;;;;;3.75;2.47;;;;;;;6.59;87.50;96403.22;2066730;28;20053;-75
2023/02/19 04:20:17;;;;;;;3.35;2.20;;;;;;;6.55;87.81;96409.38;2066889;28;20039;-75
2023/02/19 04:21:18;;;;;;;5.57;2.45;;;;;;;6.58;88.12;96414.44;2073945;28;20046;-75
2023/02/19 04:22:19;;;;;;;4.88;2.30;;;;;;;6.67;87.69;96417.69;2073853;28;20046;-75
2023/02/19 04:23:22;;;;;;;3.40;2.45;;;;;;;6.66;87.40;96418.56;2081858;28;20386;-75
2023/02/19 04:24:27;;;;;;;4.13;2.40;;;;;;;6.63;87.40;96415.19;2082270;28;20048;-75
2023/02/19 04:25:28;;;;;;;4.70;2.28;;;;;;;6.69;87.42;96421.06;2082397;28;20393;-75
2023/02/19 04:26:29;;;;;;;3.80;2.70;;;;;;;6.75;86.75;96410.59;2090405;28;20029;-74
2023/02/19 04:27:31;;;;;;;3.97;2.40;;;;;;;6.73;86.42;96423.53;2081821;28;20030;-75
2023/02/19 04:28:33;;;;;;;3.80;2.35;;;;;;;6.77;86.18;96421.72;2090196;28;20048;-75
2023/02/19 04:29:34;;;;;;;2.92;2.08;;;;;;;6.73;85.98;96420.94;2090023;28;20470;-74
2023/02/19 04:30:35;;;;;;;3.50;2.30;;;;;;;6.74;86.55;96424.41;2081188;28;20489;-75
2023/02/19 04:31:36;;;;;;;3.72;2.20;;;;;;;6.67;86.88;96420.25;2089936;28;20044;-74
2023/02/19 04:32:37;;;;;;;4.57;2.58;;;;;;;6.77;86.18;96430.31;2089924;28;20249;-74
2023/02/19 04:33:38;;;;;;;3.95;2.10;;;;;;;6.73;86.79;96438.16;2090021;28;20457;-75
2023/02/19 04:34:39;;;;;;;4.20;2.45;;;;;;;6.78;86.47;96442.31;2098858;28;20020;-75
2023/02/19 04:35:41;;;;;;;3.38;2.17;;;;;;;6.71;86.71;96437.34;2099170;28;20035;-75
2023/02/19 04:36:42;;;;;;;4.30;2.50;;;;;;;6.74;86.63;96430.41;2098884;28;20055;-75
2023/02/19 04:37:43;;;;;;;2.92;2.10;;;;;;;6.75;85.58;96442.41;2098182;28;20158;-74
2023/02/19 04:38:44;;;;;;;4.20;2.35;;;;;;;6.70;86.17;96438.25;2098327;28;20048;-75
2023/02/19 04:39:45;;;;;;;4.28;2.38;;;;;;;6.71;86.21;96430.47;2098842;28;20492;-74
2023/02/19 04:40:46;;;;;;;3.58;2.55;;;;;;;6.67;86.52;96444.31;2098865;28;20032;-74
2023/02/19 04:41:47;;;;;;;4.30;2.30;;;;;;;6.64;86.83;96441.81;2098815;28;20040;-74
2023/02/19 04:42:48;;;;;;;5.95;2.60;;;;;;;6.65;87.53;96442.66;2098756;28;20047;-75
2023/02/19 04:43:49;;;;;;;4.18;2.70;;;;;;;6.65;86.76;96442.66;2098795;28;20073;-74
2023/02/19 04:44:50;;;;;;;3.85;2.47;;;;;;;6.67;87.19;96444.31;2098765;28;20036;-75
2023/02/19 04:45:51;;;;;;;2.70;2.00;;;;;;;6.60;86.80;96424.72;2098757;28;20036;-75
2023/02/19 04:46:53;;;;;;;3.38;2.30;;;;;;;6.80;86.33;96445.72;2098715;28;20036;-74
2023/02/19 04:47:54;;;;;;;4.93;2.65;;;;;;;6.82;86.15;96450.84;2098873;28;20044;-74
2023/02/19 04:48:55;;;;;;;3.03;2.08;;;;;;;6.82;86.13;96449.13;2097963;28;20380;-75
2023/02/19 04:49:56;;;;;;;3.28;2.17;;;;;;;6.82;85.77;96449.13;2098169;28;20051;-75
2023/02/19 04:50:57;;;;;;;3.53;2.20;;;;;;;6.81;85.80;96442.25;2098698;28;20052;-75
2023/02/19 04:51:58;;;;;;;4.60;2.65;;;;;;;6.84;86.43;96447.34;2098795;28;20044;-74
2023/02/19 04:52:59;;;;;;;3.72;2.30;;;;;;;6.82;86.51;96443.94;2098930;28;20040;-75
2023/02/19 04:54:00;;;;;;;3.67;2.65;;;;;;;6.81;86.50;96451.72;2098938;28;20432;-75
2023/02/19 04:55:01;;;;;;;3.83;2.03;;;;;;;6.76;86.68;96440.66;2098243;28;20492;-74
2023/02/19 04:56:07;;;;;;;3.65;2.30;;;;;;;6.74;86.71;96447.63;2098028;28;20041;-74
2023/02/19 04:57:08;;;;;;;3.03;1.70;;;;;;;6.76;86.41;96451.00;2098620;28;20045;-75
2023/02/19 04:58:09;;;;;;;5.25;2.85;;;;;;;6.72;86.94;96442.47;2098734;28;20036;-75
2023/02/19 04:59:10;;;;;;;3.38;2.28;;;;;;;6.72;86.86;96445.06;2098668;28;20044;-75
2023/02/19 05:00:11;;;;;;;5.22;2.67;;;;;;;6.75;86.32;96452.72;2098811;28;20036;-75
2023/02/19 05:01:13;;;;;;;3.85;2.47;;;;;;;6.71;86.68;96443.38;2098609;28;20064;-75
2023/02/19 05:02:14;;;;;;;3.75;2.30;;;;;;;6.74;86.72;96445.88;2098255;28;20041;-75
2023/02/19 05:03:15;;;;;;;3.65;2.38;;;;;;;6.75;86.42;96450.16;2098053;28;20040;-75
2023/02/19 05:04:16;;;;;;;3.65;2.28;;;;;;;6.74;86.33;96453.63;2098465;28;20040;-75
2023/02/19 05:05:17;;;;;;;4.25;2.33;;;;;;;6.75;86.43;96455.31;2098714;28;20048;-75
2023/02/19 05:06:18;;;;;;;3.10;2.00;;;;;;;6.84;85.67;96462.84;2097745;28;20047;-75
2023/02/19 05:07:19;;;;;;;3.83;2.58;;;;;;;6.91;84.64;96458.34;2089784;28;20420;-75
2023/02/19 05:08:20;;;;;;;3.40;2.42;;;;;;;6.90;85.57;96461.00;2089929;28;20036;-76
2023/02/19 05:09:21;;;;;;;3.30;2.40;;;;;;;6.85;85.51;96448.19;2098482;28;20043;-76
2023/02/19 05:10:22;;;;;;;3.35;2.15;;;;;;;6.90;85.21;96454.09;2098520;28;20494;-76
2023/02/19 05:11:24;;;;;;;6.05;2.35;;;;;;;6.90;85.50;96455.84;2098517;28;20035;-75
2023/02/19 05:12:25;;;;;;;3.70;2.72;;;;;;;6.89;85.44;96452.38;2097478;28;20067;-75
2023/02/19 05:13:26;;;;;;;3.20;1.60;;;;;;;6.93;84.91;96460.91;2097908;28;20040;-75
2023/02/19 05:14:27;;;;;;;3.28;2.08;;;;;;;6.90;85.34;96454.09;2097958;28;20059;-75
2023/02/19 05:15:28;;;;;;;3.30;2.17;;;;;;;6.90;85.30;96458.41;2097882;28;20063;-75
2023/02/19 05:16:29;;;;;;;3.60;2.38;;;;;;;6.90;84.88;96453.25;2098515;28;20043;-76
2023/02/19 05:17:34;;;;;;;3.30;2.00;;;;;;;6.94;85.10;96462.59;2098569;28;20429;-76
2023/02/19 05:18:35;;;;;;;3.45;2.13;;;;;;;6.97;84.16;96460.78;2098359;28;20037;-75
2023/02/19 05:19:36;;;;;;;3.15;2.20;;;;;;;6.90;84.14;96438.59;2102194;28;20048;-76
2023/02/19 05:20:37;;;;;;;3.65;2.15;;;;;;;6.99;84.42;96465.91;2107053;28;20039;-76
2023/02/19 05:21:39;;;;;;;3.30;2.22;;;;;;;6.93;84.14;96440.25;2106814;28;20064;-76
2023/02/19 05:22:40;;;;;;;4.13;2.30;;;;;;;7.01;84.07;96453.81;2097913;28;20040;-75
2023/02/19 05:23:41;;;;;;;3.13;2.28;;;;;;;7.00;84.70;96454.69;2097979;28;20040;-74
2023/02/19 05:24:42;;;;;;;3.38;1.80;;;;;;;6.99;84.50;96450.41;2106912;28;20403;-75
2023/02/19 05:25:44;;;;;;;2.75;1.88;;;;;;;6.99;84.58;96455.59;2106934;28;20043;-74
2023/02/19 05:26:47;;;;;;;2.78;2.20;;;;;;;6.89;84.89;96430.88;2106989;28;20367;-74
2023/02/19 05:27:48;;;;;;;3.42;2.20;;;;;;;7.03;84.48;96457.19;2106708;28;20476;-75
2023/02/19 05:28:51;;;;;;;3.97;2.28;;;;;;;7.00;84.52;96452.97;2106814;28;20035;-75